Time;durP1;ratioP1;P1;durP2;ratioP2;P2;SDS_P1;SDS_P2;PMS_P1;PMS_P2;Temp;Humidity;BMP_temperature;BMP_pressure;BME280_temperature;BME280_humidity;BME280_pressure;Samples;Min_cycle;Max_cycle;Signal;HPM_P1;HPM_P2
2024/04/13 00:01:33;;;;;;;7.57;6.23;;;17.20;99.90;;;;;;5392675;26;21024;-66
2024/04/13 00:03:59;;;;;;;12.93;6.53;;;17.10;99.90;;;;;;5395776;26;20509;-66
2024/04/13 00:06:26;;;;;;;6.87;5.87;;;17.10;99.90;;;;;;5384708;26;20241;-66
2024/04/13 00:08:55;;;;;;;7.53;5.60;;;17.00;99.90;;;;;;5421829;26;20533;-66
2024/04/13 00:11:22;;;;;;;7.77;5.60;;;17.00;99.90;;;;;;5391210;26;20817;-66
2024/04/13 00:13:49;;;;;;;7.13;5.43;;;17.00;99.90;;;;;;5386227;26;20462;-66
2024/04/13 00:16:16;;;;;;;7.13;5.57;;;16.90;99.90;;;;;;5395710;26;20508;-66
2024/04/13 00:18:41;;;;;;;9.87;6.80;;;16.90;99.90;;;;;;5404669;26;20473;-66
2024/04/13 00:21:07;;;;;;;12.03;5.00;;;16.90;99.90;;;;;;5391820;26;20539;-66
2024/04/13 00:23:32;;;;;;;8.33;5.70;;;16.90;99.90;;;;;;5392796;26;20229;-66
2024/04/13 00:25:58;;;;;;;6.80;5.10;;;16.90;99.90;;;;;;5398045;26;20349;-66
2024/04/13 00:28:23;;;;;;;7.30;5.00;;;16.90;99.90;;;;;;5397281;26;20595;-66
2024/04/13 00:30:49;;;;;;;6.27;4.60;;;16.90;99.90;;;;;;5398460;26;20530;-66
2024/04/13 00:33:15;;;;;;;7.63;4.57;;;16.80;99.90;;;;;;5405273;26;20753;-66
2024/04/13 00:35:41;;;;;;;11.40;5.27;;;16.80;99.90;;;;;;5390225;26;20238;-66
2024/04/13 00:38:08;;;;;;;8.97;5.43;;;16.80;99.90;;;;;;5386711;26;20924;-66
2024/04/13 00:40:33;;;;;;;9.37;5.53;;;16.80;99.90;;;;;;5388191;26;20598;-66
2024/04/13 00:43:05;;;;;;;8.37;4.80;;;16.80;99.90;;;;;;5390614;26;20521;-66
2024/04/13 00:45:42;;;;;;;6.80;5.30;;;16.70;99.90;;;;;;5383387;26;20241;-66
2024/04/13 00:48:09;;;;;;;6.60;5.00;;;16.70;99.90;;;;;;5390048;26;20454;-66
2024/04/13 00:50:37;;;;;;;6.20;5.00;;;16.70;99.90;;;;;;5388742;26;20591;-65
2024/04/13 00:53:03;;;;;;;7.30;5.20;;;16.70;99.90;;;;;;5403895;26;20514;-65
2024/04/13 00:55:29;;;;;;;5.97;4.73;;;16.60;99.90;;;;;;5386758;26;20525;-66
2024/04/13 00:57:57;;;;;;;5.13;4.40;;;16.60;99.90;;;;;;5395386;26;20471;-66
2024/04/13 01:00:23;;;;;;;6.10;4.17;;;16.60;99.90;;;;;;5386580;26;20420;-66
2024/04/13 01:02:48;;;;;;;5.73;4.53;;;16.60;99.90;;;;;;5391037;26;20607;-66
2024/04/13 01:05:14;;;;;;;7.10;4.73;;;16.60;99.90;;;;;;5382963;26;20483;-66
2024/04/13 01:07:40;;;;;;;5.40;4.40;;;16.50;99.90;;;;;;5385026;26;20234;-66
2024/04/13 01:10:11;;;;;;;6.77;5.97;;;16.50;99.90;;;;;;5387536;26;20240;-66
2024/04/13 01:12:39;;;;;;;7.60;4.60;;;16.50;99.90;;;;;;5395148;26;20548;-67
2024/04/13 01:15:05;;;;;;;8.07;5.00;;;16.50;99.90;;;;;;5399908;26;21056;-66
2024/04/13 01:17:30;;;;;;;7.03;5.47;;;16.50;99.90;;;;;;5393734;26;20607;-66
2024/04/13 01:19:56;;;;;;;5.80;5.20;;;16.50;99.90;;;;;;5394499;26;20245;-66
2024/04/13 01:22:21;;;;;;;6.40;4.47;;;16.50;99.90;;;;;;5397926;26;20701;-66
2024/04/13 01:24:49;;;;;;;5.87;4.80;;;16.50;99.90;;;;;;5402228;26;20775;-66
2024/04/13 01:27:15;;;;;;;8.87;5.00;;;16.50;99.90;;;;;;5417686;26;20225;-66
2024/04/13 01:29:41;;;;;;;6.43;4.77;;;16.40;99.90;;;;;;5394925;26;20787;-66
2024/04/13 01:32:07;;;;;;;5.60;4.47;;;16.40;99.90;;;;;;5382118;26;20492;-66
2024/04/13 01:34:32;;;;;;;9.80;4.80;;;16.40;99.90;;;;;;5387815;26;20523;-66
2024/04/13 01:36:58;;;;;;;9.17;5.23;;;16.40;99.90;;;;;;5391098;26;20880;-66
2024/04/13 01:39:23;;;;;;;5.90;4.30;;;16.40;99.90;;;;;;5387846;26;20308;-66
2024/04/13 01:41:55;;;;;;;7.10;4.70;;;16.40;99.90;;;;;;5391165;26;20230;-66
2024/04/13 01:44:21;;;;;;;6.67;5.30;;;16.30;99.90;;;;;;5394940;26;20241;-66
2024/04/13 01:46:46;;;;;;;6.57;5.10;;;16.40;99.90;;;;;;5386843;26;20476;-66
2024/04/13 01:49:12;;;;;;;9.93;5.30;;;16.30;99.90;;;;;;5395228;26;20229;-66
2024/04/13 01:51:38;;;;;;;12.37;5.20;;;16.30;99.90;;;;;;5387598;26;20283;-66
2024/04/13 01:54:04;;;;;;;6.17;4.70;;;16.30;99.90;;;;;;5387762;26;20461;-66
2024/04/13 01:56:29;;;;;;;6.40;4.87;;;16.20;99.90;;;;;;5394638;26;20468;-66
2024/04/13 01:58:55;;;;;;;7.37;5.90;;;16.20;99.90;;;;;;5389375;26;21467;-66
2024/04/13 02:01:21;;;;;;;6.00;5.20;;;16.20;99.90;;;;;;5391287;26;20237;-66
2024/04/13 02:03:48;;;;;;;7.50;5.53;;;16.20;99.90;;;;;;5385332;26;20829;-66
2024/04/13 02:06:14;;;;;;;7.57;5.40;;;16.10;99.90;;;;;;5393128;26;20596;-66
2024/04/13 02:08:39;;;;;;;7.93;5.43;;;16.00;99.90;;;;;;5387326;26;21024;-66
2024/04/13 02:11:08;;;;;;;8.37;5.60;;;16.00;99.90;;;;;;5385305;26;20284;-66
2024/04/13 02:13:34;;;;;;;10.97;5.73;;;16.00;99.90;;;;;;5375770;26;20234;-67
2024/04/13 02:16:02;;;;;;;7.10;5.40;;;16.00;99.90;;;;;;5391344;26;20893;-66
2024/04/13 02:18:28;;;;;;;6.60;5.57;;;15.90;99.90;;;;;;5412298;26;20381;-66
2024/04/13 02:20:55;;;;;;;8.50;5.50;;;16.00;99.90;;;;;;5388393;26;20479;-66
2024/04/13 02:23:21;;;;;;;9.03;5.27;;;15.90;99.90;;;;;;5395622;26;20403;-66
2024/04/13 02:25:49;;;;;;;6.77;5.33;;;15.80;99.90;;;;;;5383862;26;20475;-66
2024/04/13 02:28:15;;;;;;;9.77;5.83;;;15.80;99.90;;;;;;5394247;26;20490;-66
2024/04/13 02:30:42;;;;;;;6.00;5.13;;;15.70;99.90;;;;;;5386460;26;21189;-66
2024/04/13 02:33:07;;;;;;;7.70;5.33;;;15.70;99.90;;;;;;5389266;26;20847;-66
2024/04/13 02:35:33;;;;;;;7.30;4.37;;;15.70;99.90;;;;;;5383334;26;20671;-66
2024/04/13 02:38:00;;;;;;;5.37;4.83;;;15.70;99.90;;;;;;5391342;26;20234;-66
2024/04/13 02:40:27;;;;;;;10.17;5.63;;;15.70;99.90;;;;;;5387278;26;20462;-66
2024/04/13 02:42:57;;;;;;;7.00;5.07;;;15.70;99.90;;;;;;5382360;26;20377;-66
2024/04/13 02:45:23;;;;;;;9.73;5.57;;;15.70;99.90;;;;;;5380543;26;20909;-65
2024/04/13 02:47:48;;;;;;;6.17;4.57;;;15.70;99.90;;;;;;5398428;26;20604;-65
2024/04/13 02:50:17;;;;;;;6.23;4.63;;;15.70;99.90;;;;;;5398642;26;20274;-66
2024/04/13 02:52:43;;;;;;;6.00;5.17;;;15.70;99.90;;;;;;5380103;26;20285;-66
2024/04/13 02:55:09;;;;;;;8.13;5.10;;;15.60;99.90;;;;;;5392313;26;20958;-66
2024/04/13 02:57:35;;;;;;;6.87;5.00;;;15.60;99.90;;;;;;5385727;26;20781;-66
2024/04/13 03:00:01;;;;;;;6.50;4.90;;;15.60;99.90;;;;;;5399601;26;21002;-65
2024/04/13 03:02:27;;;;;;;5.20;4.60;;;15.60;99.90;;;;;;5390078;26;20612;-66
2024/04/13 03:04:53;;;;;;;6.00;5.40;;;15.60;99.90;;;;;;5395873;26;21009;-67
2024/04/13 03:07:19;;;;;;;8.50;4.87;;;15.60;99.90;;;;;;5388140;26;20774;-66
2024/04/13 03:09:47;;;;;;;6.07;5.47;;;15.50;99.90;;;;;;5390969;26;20625;-66
2024/04/13 03:12:13;;;;;;;5.50;4.90;;;15.50;99.90;;;;;;5395278;26;20534;-66
2024/04/13 03:14:39;;;;;;;8.50;5.03;;;15.50;99.90;;;;;;5398800;26;20627;-66
2024/04/13 03:17:07;;;;;;;7.17;4.70;;;15.50;99.90;;;;;;5381386;26;20470;-66
2024/04/13 03:19:33;;;;;;;6.80;5.53;;;15.50;99.90;;;;;;5392179;26;20269;-66
2024/04/13 03:21:59;;;;;;;12.97;4.70;;;15.50;99.90;;;;;;5394144;26;20519;-66
2024/04/13 03:24:25;;;;;;;7.30;5.47;;;15.50;99.90;;;;;;5386049;26;20263;-66
2024/04/13 03:26:50;;;;;;;12.10;5.93;;;15.50;99.90;;;;;;5393048;26;20565;-68
2024/04/13 03:29:16;;;;;;;6.00;4.53;;;15.40;99.90;;;;;;5401251;26;20869;-67
2024/04/13 03:31:42;;;;;;;8.10;4.83;;;15.40;99.90;;;;;;5392909;26;20261;-66
2024/04/13 03:34:08;;;;;;;8.03;5.50;;;15.40;99.90;;;;;;5389967;26;20248;-66
2024/04/13 03:36:35;;;;;;;6.47;4.80;;;15.40;99.90;;;;;;5389847;26;20236;-66
2024/04/13 03:39:01;;;;;;;6.37;5.27;;;15.30;99.90;;;;;;5392282;26;20563;-66
2024/04/13 03:41:27;;;;;;;4.70;4.30;;;15.30;99.90;;;;;;5392303;26;20476;-66
2024/04/13 03:43:52;;;;;;;8.77;5.73;;;15.30;99.90;;;;;;5394543;26;20833;-66
2024/04/13 03:46:18;;;;;;;6.30;5.20;;;15.20;99.90;;;;;;5393404;26;21522;-66
2024/04/13 03:48:43;;;;;;;9.73;5.13;;;15.10;99.90;;;;;;5393312;26;20229;-66
2024/04/13 03:51:10;;;;;;;5.77;4.90;;;15.10;99.90;;;;;;5392237;26;20268;-66
2024/04/13 03:53:36;;;;;;;8.77;5.10;;;15.10;99.90;;;;;;5390517;26;20337;-66
2024/04/13 03:56:02;;;;;;;6.37;5.00;;;15.10;99.90;;;;;;5390186;26;20510;-66
2024/04/13 03:58:28;;;;;;;5.70;4.40;;;15.10;99.90;;;;;;5393527;26;20521;-66
2024/04/13 04:00:54;;;;;;;12.63;5.57;;;15.10;99.90;;;;;;5388182;26;20493;-66
2024/04/13 04:03:19;;;;;;;7.03;4.97;;;15.00;99.90;;;;;;5394944;26;20476;-66
2024/04/13 04:05:49;;;;;;;12.30;5.70;;;15.00;99.90;;;;;;5384840;26;20232;-66
2024/04/13 04:08:14;;;;;;;6.80;5.17;;;15.00;99.90;;;;;;5396212;26;20641;-66
2024/04/13 04:10:43;;;;;;;6.47;4.70;;;15.00;99.90;;;;;;5390633;26;20470;-66
2024/04/13 04:13:08;;;;;;;5.30;4.80;;;15.00;99.90;;;;;;5391863;26;20299;-65
2024/04/13 04:15:34;;;;;;;7.43;4.80;;;15.00;99.90;;;;;;5397424;26;20455;-66
2024/04/13 04:18:01;;;;;;;7.20;4.67;;;15.00;99.90;;;;;;5393221;26;20229;-66
2024/04/13 04:20:26;;;;;;;6.47;5.00;;;14.90;99.90;;;;;;5398385;26;20225;-66
2024/04/13 04:22:52;;;;;;;7.43;5.33;;;14.90;99.90;;;;;;5391344;26;20503;-66
2024/04/13 04:25:22;;;;;;;6.63;5.00;;;14.90;99.90;;;;;;5401740;26;20318;-65
2024/04/13 04:27:48;;;;;;;5.40;4.90;;;14.90;99.90;;;;;;5395953;26;20952;-66
2024/04/13 04:30:15;;;;;;;5.37;4.57;;;14.90;99.90;;;;;;5395090;26;20557;-66
2024/04/13 04:32:41;;;;;;;7.53;4.70;;;14.80;99.90;;;;;;5399314;26;20558;-66
2024/04/13 04:35:07;;;;;;;7.43;4.80;;;14.80;99.90;;;;;;5398705;26;20511;-66
2024/04/13 04:37:33;;;;;;;8.47;5.20;;;14.80;99.90;;;;;;5392741;26;20505;-66
2024/04/13 04:39:58;;;;;;;7.10;4.87;;;14.80;99.90;;;;;;5395257;26;20830;-66
2024/04/13 04:42:24;;;;;;;6.00;4.63;;;14.80;99.90;;;;;;5400115;26;20623;-66
2024/04/13 04:44:50;;;;;;;5.73;4.77;;;14.80;99.90;;;;;;5391755;26;20333;-66
2024/04/13 04:47:16;;;;;;;8.63;5.10;;;14.80;99.90;;;;;;5390983;26;20288;-66
2024/04/13 04:49:42;;;;;;;8.57;4.80;;;14.80;99.90;;;;;;5391232;26;20472;-66
2024/04/13 04:52:07;;;;;;;5.50;4.30;;;14.80;99.90;;;;;;5399695;26;20481;-66
2024/04/13 04:54:33;;;;;;;7.53;5.57;;;14.80;99.90;;;;;;5401179;26;20272;-66
2024/04/13 04:56:59;;;;;;;7.03;4.70;;;14.90;99.90;;;;;;5394236;26;20236;-66
2024/04/13 04:59:24;;;;;;;6.30;4.90;;;14.80;99.90;;;;;;5390100;26;20730;-65
2024/04/13 05:01:50;;;;;;;9.63;4.87;;;14.80;99.90;;;;;;5391800;26;21088;-65
2024/04/13 05:04:16;;;;;;;12.03;5.40;;;14.80;99.90;;;;;;5393157;26;20245;-66
2024/04/13 05:06:42;;;;;;;10.13;4.87;;;14.90;99.90;;;;;;5391207;26;20244;-66
2024/04/13 05:09:09;;;;;;;8.60;4.77;;;14.80;99.90;;;;;;5386149;26;20476;-66
2024/04/13 05:11:35;;;;;;;5.13;4.63;;;14.80;99.90;;;;;;5391660;26;20875;-66
2024/04/13 05:14:01;;;;;;;5.60;4.80;;;14.80;99.90;;;;;;5387346;26;20501;-66
2024/04/13 05:16:26;;;;;;;7.23;5.20;;;14.80;99.90;;;;;;5392533;26;20316;-68
2024/04/13 05:18:52;;;;;;;8.53;4.70;;;14.80;99.90;;;;;;5387147;26;20263;-66
2024/04/13 05:21:17;;;;;;;5.50;5.00;;;14.80;99.90;;;;;;5391510;26;20237;-67
2024/04/13 05:23:43;;;;;;;8.00;5.50;;;14.80;99.90;;;;;;5394995;26;20325;-66
2024/04/13 05:26:09;;;;;;;8.03;5.93;;;14.80;99.90;;;;;;5393129;26;20903;-66
2024/04/13 05:28:34;;;;;;;6.70;5.30;;;14.80;99.90;;;;;;5418185;26;20264;-66
2024/04/13 05:31:02;;;;;;;6.17;5.13;;;14.80;99.90;;;;;;5389674;26;20565;-66
2024/04/13 05:33:28;;;;;;;6.23;5.10;;;14.80;99.90;;;;;;5394230;26;20583;-66
2024/04/13 05:35:57;;;;;;;6.70;5.00;;;14.80;99.90;;;;;;5387635;26;20458;-66
2024/04/13 05:38:23;;;;;;;6.83;5.27;;;14.80;99.90;;;;;;5388916;26;20302;-66
2024/04/13 05:40:54;;;;;;;7.83;5.57;;;14.80;99.90;;;;;;5393717;26;21304;-66
2024/04/13 05:43:19;;;;;;;5.07;4.57;;;14.80;99.90;;;;;;5390335;26;20257;-66
2024/04/13 05:45:45;;;;;;;9.90;5.53;;;14.80;99.90;;;;;;5392484;26;20467;-66
2024/04/13 05:48:11;;;;;;;6.67;5.40;;;14.70;99.90;;;;;;5393549;26;20229;-67
2024/04/13 05:50:40;;;;;;;7.80;5.50;;;14.70;99.90;;;;;;5398170;26;20229;-66
2024/04/13 05:53:05;;;;;;;7.10;5.50;;;14.70;99.90;;;;;;5395205;26;20455;-67
2024/04/13 05:55:31;;;;;;;8.67;5.70;;;14.70;99.90;;;;;;5393789;26;20527;-67
2024/04/13 05:57:57;;;;;;;6.30;5.70;;;14.70;99.90;;;;;;5388500;26;20648;-66
2024/04/13 06:00:23;;;;;;;8.83;5.80;;;14.70;99.90;;;;;;5397285;26;20515;-66
2024/04/13 06:02:51;;;;;;;7.50;5.40;;;14.80;99.90;;;;;;5391991;26;20283;-67
2024/04/13 06:05:17;;;;;;;6.10;5.10;;;14.80;99.90;;;;;;5395311;26;20233;-67
2024/04/13 06:07:43;;;;;;;5.47;4.97;;;14.80;99.90;;;;;;5397046;26;21114;-66
2024/04/13 06:10:08;;;;;;;7.00;5.43;;;14.90;99.90;;;;;;5393930;26;20229;-66
2024/04/13 06:12:34;;;;;;;8.83;4.50;;;15.00;99.90;;;;;;5394300;26;20575;-66
2024/04/13 06:15:00;;;;;;;5.03;4.40;;;15.00;99.90;;;;;;5399368;26;20714;-66
2024/04/13 06:17:26;;;;;;;8.90;5.10;;;15.00;99.90;;;;;;5384624;26;20592;-66
2024/04/13 06:19:51;;;;;;;5.97;4.93;;;15.00;99.90;;;;;;5397176;26;20267;-66
2024/04/13 06:22:23;;;;;;;6.27;5.03;;;15.00;99.90;;;;;;5388013;26;20475;-66
2024/04/13 06:24:50;;;;;;;6.67;5.03;;;15.10;99.90;;;;;;5395434;26;20232;-66
2024/04/13 06:27:16;;;;;;;5.73;5.13;;;15.10;99.90;;;;;;5398411;26;20463;-67
2024/04/13 06:29:48;;;;;;;6.27;4.50;;;15.20;99.90;;;;;;5396429;26;20474;-66
2024/04/13 06:32:14;;;;;;;5.17;4.67;;;15.20;99.90;;;;;;5396123;26;20471;-66
2024/04/13 06:34:40;;;;;;;6.77;4.70;;;15.20;99.90;;;;;;5397440;26;20513;-67
2024/04/13 06:37:06;;;;;;;5.87;4.23;;;15.20;99.90;;;;;;5391359;26;21013;-67
2024/04/13 06:39:31;;;;;;;5.57;4.57;;;15.30;99.90;;;;;;5384472;26;20233;-67
2024/04/13 06:41:57;;;;;;;6.17;4.73;;;15.40;99.90;;;;;;5395199;26;20471;-68
2024/04/13 06:44:23;;;;;;;5.60;4.20;;;15.40;99.90;;;;;;5417328;26;20246;-66
2024/04/13 06:46:50;;;;;;;4.83;4.33;;;15.50;99.90;;;;;;5391260;26;20300;-67
2024/04/13 06:49:16;;;;;;;7.53;4.83;;;15.50;99.90;;;;;;5393396;26;20248;-67
2024/04/13 06:51:42;;;;;;;5.50;4.83;;;15.60;99.90;;;;;;5387765;26;20515;-66
2024/04/13 06:54:07;;;;;;;5.93;4.63;;;15.70;99.90;;;;;;5393593;26;20539;-66
2024/04/13 06:56:33;;;;;;;8.70;4.73;;;15.70;99.90;;;;;;5393625;26;20234;-66
2024/04/13 06:58:59;;;;;;;5.87;5.13;;;15.70;99.90;;;;;;5393538;26;20233;-66
2024/04/13 07:01:24;;;;;;;10.20;4.63;;;15.80;99.90;;;;;;5388511;26;20253;-66
2024/04/13 07:03:50;;;;;;;9.13;4.70;;;15.70;99.90;;;;;;5398907;26;20256;-66
2024/04/13 07:06:15;;;;;;;6.33;4.37;;;15.80;99.90;;;;;;5394016;26;20242;-66
2024/04/13 07:08:43;;;;;;;5.73;4.10;;;15.70;99.90;;;;;;5391170;26;20374;-66
2024/04/13 07:11:09;;;;;;;7.10;4.87;;;15.80;99.90;;;;;;5387688;26;20253;-66
2024/04/13 07:13:34;;;;;;;6.80;4.70;;;15.80;99.90;;;;;;5388814;26;20455;-66
2024/04/13 07:16:00;;;;;;;5.30;3.83;;;15.80;99.90;;;;;;5395962;26;22546;-66
2024/04/13 07:18:25;;;;;;;7.87;4.40;;;15.80;99.90;;;;;;5387010;26;20240;-67
2024/04/13 07:20:51;;;;;;;3.87;3.47;;;15.80;99.90;;;;;;5389043;26;20346;-67
2024/04/13 07:23:17;;;;;;;4.37;3.63;;;16.00;99.90;;;;;;5377754;26;20238;-67
2024/04/13 07:25:43;;;;;;;5.83;4.37;;;15.90;99.90;;;;;;5389834;26;20275;-67
2024/04/13 07:28:10;;;;;;;7.10;3.93;;;16.00;99.90;;;;;;5390435;26;20618;-67
2024/04/13 07:30:35;;;;;;;4.57;3.93;;;16.20;99.90;;;;;;5394095;26;20459;-67
2024/04/13 07:33:02;;;;;;;4.40;3.93;;;16.30;99.90;;;;;;5387380;26;20519;-67
2024/04/13 07:35:27;;;;;;;4.67;4.00;;;16.20;99.90;;;;;;5389713;26;20357;-67
2024/04/13 07:37:54;;;;;;;4.67;3.60;;;16.30;99.90;;;;;;5387673;26;20474;-67
2024/04/13 07:40:19;;;;;;;7.80;4.47;;;16.50;99.90;;;;;;5393477;26;20268;-67
2024/04/13 07:42:45;;;;;;;5.20;3.83;;;16.60;99.90;;;;;;5389345;26;21380;-67
2024/04/13 07:45:10;;;;;;;5.67;4.03;;;16.70;99.90;;;;;;5386797;26;20324;-67
2024/04/13 07:47:36;;;;;;;6.37;4.50;;;16.80;99.90;;;;;;5389703;26;20726;-67
2024/04/13 07:50:02;;;;;;;6.30;4.10;;;16.80;99.90;;;;;;5392739;26;20314;-67
2024/04/13 07:52:27;;;;;;;5.30;4.10;;;16.90;99.90;;;;;;5385303;26;20313;-67
2024/04/13 07:54:53;;;;;;;7.80;5.83;;;17.00;99.90;;;;;;5383783;26;20249;-67
2024/04/13 07:57:19;;;;;;;6.73;3.80;;;17.20;99.90;;;;;;5390342;26;20268;-67
2024/04/13 07:59:45;;;;;;;4.73;3.70;;;17.30;99.90;;;;;;5384975;26;20275;-67
2024/04/13 08:02:11;;;;;;;4.50;3.77;;;17.30;99.90;;;;;;5394019;26;20710;-66
2024/04/13 08:04:36;;;;;;;6.10;4.20;;;17.40;99.90;;;;;;5402541;26;20467;-66
2024/04/13 08:07:02;;;;;;;5.67;3.90;;;17.50;99.90;;;;;;5390951;26;20237;-66
2024/04/13 08:09:27;;;;;;;7.57;5.00;;;17.60;99.90;;;;;;5394736;26;20338;-66
2024/04/13 08:11:54;;;;;;;8.63;4.07;;;17.70;99.90;;;;;;5395960;26;20808;-65
2024/04/13 08:14:19;;;;;;;6.33;3.90;;;17.70;99.90;;;;;;5402274;26;20574;-66
2024/04/13 08:16:45;;;;;;;9.20;4.70;;;17.80;99.90;;;;;;5397109;26;20515;-66
2024/04/13 08:19:11;;;;;;;6.53;4.50;;;17.90;99.90;;;;;;5391125;26;20238;-66
2024/04/13 08:21:37;;;;;;;4.30;3.90;;;18.00;99.90;;;;;;5396499;26;20565;-66
2024/04/13 08:24:03;;;;;;;5.50;4.30;;;18.10;99.90;;;;;;5398656;26;20306;-66
2024/04/13 08:26:28;;;;;;;5.67;4.20;;;18.20;99.90;;;;;;5392550;26;20237;-66
2024/04/13 08:28:54;;;;;;;4.90;3.67;;;18.30;99.90;;;;;;5396698;26;20739;-66
2024/04/13 08:31:19;;;;;;;9.40;4.50;;;18.40;99.90;;;;;;5391765;26;20289;-66
2024/04/13 08:33:45;;;;;;;10.63;4.50;;;18.50;99.90;;;;;;5402549;26;20295;-67
2024/04/13 08:36:11;;;;;;;5.90;4.00;;;18.60;99.90;;;;;;5400087;26;20229;-67
2024/04/13 08:38:36;;;;;;;8.50;4.77;;;18.60;99.90;;;;;;5389892;26;20288;-68
2024/04/13 08:41:45;;;;;;;8.70;6.50;;;18.70;99.90;;;;;;5397952;26;20292;-66
2024/04/13 08:44:10;;;;;;;13.33;11.17;;;18.80;99.90;;;;;;5378477;26;20263;-66
2024/04/13 08:46:37;;;;;;;17.53;14.90;;;18.90;99.90;;;;;;5398351;26;20530;-66
2024/04/13 08:49:03;;;;;;;8.87;6.10;;;19.00;99.90;;;;;;5392246;26;20300;-66
2024/04/13 08:51:34;;;;;;;6.80;5.67;;;19.10;99.90;;;;;;5393944;26;20476;-66
2024/04/13 08:54:00;;;;;;;7.03;4.80;;;19.20;99.90;;;;;;5397466;26;20241;-66
2024/04/13 08:56:27;;;;;;;11.00;7.13;;;19.20;99.90;;;;;;5390712;26;20478;-65
2024/04/13 08:58:55;;;;;;;6.20;4.43;;;19.30;99.90;;;;;;5397272;26;20470;-65
2024/04/13 09:01:27;;;;;;;5.50;3.83;;;19.40;99.90;;;;;;5391449;26;20546;-67
2024/04/13 09:03:53;;;;;;;8.27;6.30;;;19.50;99.90;;;;;;5398490;26;20455;-65
2024/04/13 09:06:19;;;;;;;9.13;6.13;;;19.60;99.90;;;;;;5394001;26;20527;-66
2024/04/13 09:08:46;;;;;;;8.47;3.97;;;19.70;99.90;;;;;;5387351;26;20853;-66
2024/04/13 09:11:13;;;;;;;7.27;5.20;;;19.80;99.90;;;;;;5383534;26;20419;-67
2024/04/13 09:13:38;;;;;;;7.43;4.47;;;19.90;99.90;;;;;;5391099;26;21051;-67
2024/04/13 09:16:08;;;;;;;7.87;4.60;;;19.90;99.90;;;;;;5364032;26;20479;-66
2024/04/13 09:18:34;;;;;;;5.93;3.83;;;19.90;99.90;;;;;;5388931;26;21231;-66
2024/04/13 09:21:01;;;;;;;11.83;9.33;;;20.00;99.90;;;;;;5382920;26;20997;-67
2024/04/13 09:23:30;;;;;;;7.83;5.50;;;20.10;99.90;;;;;;5387709;26;20471;-67
2024/04/13 09:26:01;;;;;;;5.60;3.57;;;20.20;99.90;;;;;;5388094;26;20561;-67
2024/04/13 09:28:40;;;;;;;7.83;4.33;;;20.20;99.90;;;;;;5386606;26;21367;-67
2024/04/13 09:31:07;;;;;;;5.60;4.33;;;20.30;99.90;;;;;;5385155;26;20475;-67
2024/04/13 09:33:33;;;;;;;4.90;4.40;;;20.40;99.90;;;;;;5387473;26;20465;-67
2024/04/13 09:35:59;;;;;;;9.00;4.50;;;20.50;99.90;;;;;;5390744;26;20532;-67
2024/04/13 09:38:24;;;;;;;5.40;4.47;;;20.70;99.90;;;;;;5379430;26;20229;-67
2024/04/13 09:40:57;;;;;;;6.70;4.90;;;20.80;99.90;;;;;;5391423;26;20337;-66
2024/04/13 09:43:23;;;;;;;5.40;4.10;;;20.90;99.90;;;;;;5389483;26;20345;-66
2024/04/13 09:45:59;;;;;;;6.13;3.80;;;21.00;99.90;;;;;;5383606;26;20893;-67
2024/04/13 09:48:25;;;;;;;9.07;4.50;;;21.10;99.90;;;;;;5383613;26;20232;-66
2024/04/13 09:50:51;;;;;;;6.33;4.33;;;21.20;99.90;;;;;;5384179;26;20523;-66
2024/04/13 09:53:18;;;;;;;4.80;4.30;;;21.20;99.90;;;;;;5384909;26;20230;-66
2024/04/13 09:55:44;;;;;;;4.40;4.00;;;21.30;99.90;;;;;;5379482;26;20565;-66
2024/04/13 09:58:12;;;;;;;6.03;4.37;;;21.40;99.90;;;;;;5383933;26;21173;-67
2024/04/13 10:00:41;;;;;;;6.73;3.80;;;21.40;99.90;;;;;;5378159;26;20471;-67
2024/04/13 10:03:06;;;;;;;5.50;4.27;;;21.50;99.90;;;;;;5383225;26;20540;-67
2024/04/13 10:05:36;;;;;;;7.10;3.60;;;21.60;99.90;;;;;;5374769;26;20467;-66
2024/04/13 10:08:07;;;;;;;5.97;4.13;;;21.70;99.90;;;;;;5375317;26;20776;-67
2024/04/13 10:10:37;;;;;;;5.13;3.77;;;21.80;99.90;;;;;;5386756;26;20498;-67
2024/04/13 10:13:03;;;;;;;6.27;3.57;;;21.90;99.90;;;;;;5381040;26;20847;-66
2024/04/13 10:15:31;;;;;;;6.93;4.40;;;22.00;99.90;;;;;;5378254;26;20455;-66
2024/04/13 10:17:59;;;;;;;4.37;3.90;;;22.10;99.90;;;;;;5378447;26;20483;-66
2024/04/13 10:20:26;;;;;;;5.50;4.37;;;22.10;99.90;;;;;;5392157;26;20509;-68
2024/04/13 10:22:58;;;;;;;5.53;4.17;;;22.10;99.90;;;;;;5382660;26;20579;-66
2024/04/13 10:25:30;;;;;;;5.00;4.37;;;22.30;99.90;;;;;;5390690;26;20540;-66
2024/04/13 10:28:07;;;;;;;6.30;4.43;;;22.40;99.90;;;;;;5385163;26;20521;-67
2024/04/13 10:30:48;;;;;;;6.93;4.37;;;22.20;99.90;;;;;;5388171;26;20475;-66
2024/04/13 10:33:21;;;;;;;4.30;3.90;;;22.30;99.90;;;;;;5393025;26;20471;-66
2024/04/13 10:35:54;;;;;;;8.37;4.70;;;22.40;99.90;;;;;;5384878;26;20538;-66
2024/04/13 10:38:20;;;;;;;7.50;4.33;;;22.40;99.90;;;;;;5384472;26;20464;-66
2024/04/13 10:40:45;;;;;;;13.10;4.17;;;22.60;99.90;;;;;;5379543;26;20589;-66
2024/04/13 10:43:22;;;;;;;7.90;5.30;;;22.80;99.90;;;;;;5383405;26;20753;-66
2024/04/13 10:45:54;;;;;;;6.77;5.27;;;22.90;99.90;;;;;;5388178;26;20714;-66
2024/04/13 10:48:21;;;;;;;8.43;4.10;;;22.90;99.90;;;;;;5386775;26;20516;-66
2024/04/13 10:50:51;;;;;;;6.60;4.60;;;22.90;99.90;;;;;;5394008;26;21019;-67
2024/04/13 10:53:17;;;;;;;8.00;4.33;;;23.00;99.90;;;;;;5386497;26;20608;-66
2024/04/13 10:55:44;;;;;;;10.33;4.70;;;23.10;99.90;;;;;;5393588;26;20467;-66
2024/04/13 10:58:10;;;;;;;8.47;4.23;;;23.20;99.90;;;;;;5387815;26;21334;-66
2024/04/13 11:00:36;;;;;;;9.30;4.53;;;23.20;99.90;;;;;;5386290;26;21366;-67
2024/04/13 11:03:03;;;;;;;7.47;3.83;;;23.20;99.90;;;;;;5391329;26;20467;-66
2024/04/13 11:05:29;;;;;;;4.90;3.90;;;23.30;99.90;;;;;;5393454;26;20233;-66
2024/04/13 11:07:55;;;;;;;6.63;4.20;;;23.40;99.90;;;;;;5393141;26;20579;-66
2024/04/13 11:10:21;;;;;;;5.90;4.17;;;23.60;99.90;;;;;;5397544;26;20233;-66
2024/04/13 11:12:49;;;;;;;7.67;4.57;;;23.70;99.90;;;;;;5395619;26;20576;-66
2024/04/13 11:15:14;;;;;;;8.67;4.13;;;23.70;99.90;;;;;;5390906;26;20487;-66
2024/04/13 11:17:41;;;;;;;5.63;4.00;;;23.70;99.90;;;;;;5390346;26;20462;-66
2024/04/13 11:20:07;;;;;;;4.90;4.33;;;23.70;99.90;;;;;;5391798;26;20283;-67
2024/04/13 11:22:33;;;;;;;7.93;4.30;;;23.90;99.90;;;;;;5383191;26;20859;-67
2024/04/13 11:25:00;;;;;;;6.43;4.67;;;24.00;99.90;;;;;;5395178;26;21457;-67
2024/04/13 11:27:25;;;;;;;5.33;4.00;;;24.00;99.90;;;;;;5399339;26;20579;-67
2024/04/13 11:29:51;;;;;;;10.20;4.70;;;24.00;99.90;;;;;;5381408;26;20479;-67
2024/04/13 11:32:18;;;;;;;6.40;4.10;;;24.20;99.90;;;;;;5393805;26;20789;-67
2024/04/13 11:34:43;;;;;;;5.83;4.53;;;24.40;99.90;;;;;;5390723;26;20589;-67
2024/04/13 11:37:12;;;;;;;7.40;4.03;;;24.60;99.90;;;;;;5396777;26;20462;-67
2024/04/13 11:39:39;;;;;;;6.00;4.30;;;24.70;99.10;;;;;;5389310;26;20237;-67
2024/04/13 11:42:10;;;;;;;6.17;4.50;;;24.80;99.30;;;;;;5405981;26;20462;-67
2024/04/13 11:44:39;;;;;;;9.93;5.33;;;25.10;99.20;;;;;;5402740;26;20472;-67
2024/04/13 11:47:06;;;;;;;6.10;3.50;;;25.30;98.90;;;;;;5397071;26;20472;-67
2024/04/13 11:49:32;;;;;;;5.60;3.80;;;25.50;98.90;;;;;;5399808;26;20567;-67
2024/04/13 11:51:58;;;;;;;6.53;3.93;;;25.80;98.60;;;;;;5391833;26;20459;-67
2024/04/13 11:54:27;;;;;;;5.77;4.60;;;26.00;99.10;;;;;;5400609;26;20519;-67
2024/04/13 11:56:53;;;;;;;5.30;3.50;;;26.30;98.50;;;;;;5392684;26;21627;-67
2024/04/13 11:59:19;;;;;;;6.30;3.87;;;26.60;97.20;;;;;;5407788;26;20466;-67
2024/04/13 12:01:44;;;;;;;4.10;3.70;;;26.90;95.60;;;;;;5396038;26;20745;-67
2024/04/13 12:04:10;;;;;;;4.27;3.80;;;27.30;95.00;;;;;;5397651;26;20280;-67
2024/04/13 12:06:36;;;;;;;5.83;3.80;;;27.80;94.10;;;;;;5394535;26;20237;-67
2024/04/13 12:09:01;;;;;;;4.70;3.47;;;28.60;92.80;;;;;;5395881;26;20249;-67
2024/04/13 12:11:30;;;;;;;4.80;3.50;;;29.20;90.70;;;;;;5398583;26;20364;-67
2024/04/13 12:13:59;;;;;;;4.67;3.87;;;29.60;88.20;;;;;;5392210;26;20241;-67
2024/04/13 12:16:26;;;;;;;4.87;3.70;;;30.10;85.30;;;;;;5384241;26;20506;-67
2024/04/13 12:18:51;;;;;;;3.83;3.50;;;30.30;81.60;;;;;;5392520;26;21191;-67
2024/04/13 12:21:20;;;;;;;3.40;3.10;;;31.10;80.70;;;;;;5394523;26;20463;-67
2024/04/13 12:23:45;;;;;;;4.77;3.50;;;32.00;78.00;;;;;;5394593;26;20322;-67
2024/04/13 12:26:11;;;;;;;6.87;3.57;;;32.70;74.40;;;;;;5390319;26;20885;-67
2024/04/13 12:28:37;;;;;;;4.10;3.30;;;33.20;71.30;;;;;;5388738;26;20283;-67
2024/04/13 12:31:03;;;;;;;3.40;2.90;;;33.50;67.40;;;;;;5388443;26;20260;-67
2024/04/13 12:33:29;;;;;;;5.47;3.60;;;33.40;63.60;;;;;;5382065;26;20756;-67
2024/04/13 12:35:55;;;;;;;3.93;3.53;;;33.80;63.30;;;;;;5389529;26;20504;-67
2024/04/13 12:38:21;;;;;;;3.60;3.00;;;34.20;59.90;;;;;;5390699;26;20234;-67
2024/04/13 12:40:47;;;;;;;3.80;3.40;;;34.40;57.50;;;;;;5391609;26;20500;-67
2024/04/13 12:43:13;;;;;;;4.20;3.23;;;34.20;56.50;;;;;;5388860;26;20520;-67